sensor_id;sensor_type;location;lat;lon;timestamp;P1;durP1;ratioP1;P2;durP2;ratioP2
791;SDS011;379;49.022;12.148;2022-08-30T00:02:17;3.37;;;2.90;;
791;SDS011;379;49.022;12.148;2022-08-30T00:04:44;4.10;;;3.80;;
791;SDS011;379;49.022;12.148;2022-08-30T00:07:13;5.23;;;4.73;;
791;SDS011;379;49.022;12.148;2022-08-30T00:09:40;6.90;;;5.67;;
791;SDS011;379;49.022;12.148;2022-08-30T00:12:07;4.20;;;3.40;;
791;SDS011;379;49.022;12.148;2022-08-30T00:14:34;4.60;;;4.20;;
791;SDS011;379;49.022;12.148;2022-08-30T00:17:01;5.40;;;4.73;;
791;SDS011;379;49.022;12.148;2022-08-30T00:19:27;4.63;;;3.80;;
791;SDS011;379;49.022;12.148;2022-08-30T00:21:54;6.10;;;3.87;;
791;SDS011;379;49.022;12.148;2022-08-30T00:24:22;3.80;;;2.70;;
791;SDS011;379;49.022;12.148;2022-08-30T00:26:49;6.10;;;4.50;;
791;SDS011;379;49.022;12.148;2022-08-30T00:29:16;4.67;;;3.27;;
791;SDS011;379;49.022;12.148;2022-08-30T00:31:43;4.30;;;3.80;;
791;SDS011;379;49.022;12.148;2022-08-30T00:34:10;4.93;;;4.17;;
791;SDS011;379;49.022;12.148;2022-08-30T00:36:36;3.30;;;3.00;;
791;SDS011;379;49.022;12.148;2022-08-30T00:39:03;5.93;;;3.70;;
791;SDS011;379;49.022;12.148;2022-08-30T00:41:31;5.30;;;3.50;;
791;SDS011;379;49.022;12.148;2022-08-30T00:43:58;4.73;;;3.50;;
791;SDS011;379;49.022;12.148;2022-08-30T00:46:25;5.00;;;4.40;;
791;SDS011;379;49.022;12.148;2022-08-30T00:48:52;3.90;;;2.97;;
791;SDS011;379;49.022;12.148;2022-08-30T00:51:19;4.30;;;2.80;;
791;SDS011;379;49.022;12.148;2022-08-30T00:53:49;4.87;;;2.93;;
791;SDS011;379;49.022;12.148;2022-08-30T00:56:19;4.60;;;4.20;;
791;SDS011;379;49.022;12.148;2022-08-30T00:58:49;6.33;;;3.70;;
791;SDS011;379;49.022;12.148;2022-08-30T01:01:18;4.70;;;4.17;;
791;SDS011;379;49.022;12.148;2022-08-30T01:03:45;5.77;;;3.93;;
791;SDS011;379;49.022;12.148;2022-08-30T01:06:13;3.93;;;3.63;;
791;SDS011;379;49.022;12.148;2022-08-30T01:08:40;4.77;;;4.00;;
791;SDS011;379;49.022;12.148;2022-08-30T01:11:06;5.37;;;4.33;;
791;SDS011;379;49.022;12.148;2022-08-30T01:13:33;4.70;;;3.80;;
791;SDS011;379;49.022;12.148;2022-08-30T01:16:02;5.93;;;3.87;;
791;SDS011;379;49.022;12.148;2022-08-30T01:18:30;4.60;;;4.20;;
791;SDS011;379;49.022;12.148;2022-08-30T01:20:58;3.33;;;3.03;;
791;SDS011;379;49.022;12.148;2022-08-30T01:23:32;4.17;;;3.77;;
791;SDS011;379;49.022;12.148;2022-08-30T01:26:01;4.37;;;3.67;;
791;SDS011;379;49.022;12.148;2022-08-30T01:28:29;7.97;;;4.50;;
791;SDS011;379;49.022;12.148;2022-08-30T01:30:57;5.67;;;4.00;;
791;SDS011;379;49.022;12.148;2022-08-30T01:33:24;8.67;;;6.63;;
791;SDS011;379;49.022;12.148;2022-08-30T01:35:52;7.53;;;4.90;;
791;SDS011;379;49.022;12.148;2022-08-30T01:38:21;5.10;;;4.60;;
791;SDS011;379;49.022;12.148;2022-08-30T01:40:56;7.30;;;6.07;;
791;SDS011;379;49.022;12.148;2022-08-30T01:43:24;5.00;;;4.37;;
791;SDS011;379;49.022;12.148;2022-08-30T01:45:51;5.70;;;4.70;;
791;SDS011;379;49.022;12.148;2022-08-30T01:48:18;5.40;;;4.23;;
791;SDS011;379;49.022;12.148;2022-08-30T01:50:46;7.07;;;3.40;;
791;SDS011;379;49.022;12.148;2022-08-30T01:53:13;4.87;;;4.37;;
791;SDS011;379;49.022;12.148;2022-08-30T01:55:40;5.77;;;5.13;;
791;SDS011;379;49.022;12.148;2022-08-30T01:58:09;4.97;;;4.37;;
791;SDS011;379;49.022;12.148;2022-08-30T02:00:35;3.53;;;2.97;;
791;SDS011;379;49.022;12.148;2022-08-30T02:03:03;5.80;;;3.73;;
791;SDS011;379;49.022;12.148;2022-08-30T02:05:30;8.63;;;4.17;;
791;SDS011;379;49.022;12.148;2022-08-30T02:07:57;4.77;;;4.07;;
791;SDS011;379;49.022;12.148;2022-08-30T02:10:24;5.17;;;3.50;;
791;SDS011;379;49.022;12.148;2022-08-30T02:12:51;2.97;;;2.67;;
791;SDS011;379;49.022;12.148;2022-08-30T02:15:19;4.63;;;3.70;;
791;SDS011;379;49.022;12.148;2022-08-30T02:17:46;3.83;;;3.43;;
791;SDS011;379;49.022;12.148;2022-08-30T02:20:13;3.97;;;3.40;;
791;SDS011;379;49.022;12.148;2022-08-30T02:22:40;4.80;;;3.30;;
791;SDS011;379;49.022;12.148;2022-08-30T02:25:07;5.70;;;3.67;;
791;SDS011;379;49.022;12.148;2022-08-30T02:27:34;5.70;;;5.20;;
791;SDS011;379;49.022;12.148;2022-08-30T02:30:02;4.20;;;3.53;;
791;SDS011;379;49.022;12.148;2022-08-30T02:42:37;2.83;;;2.27;;
791;SDS011;379;49.022;12.148;2022-08-30T02:45:06;6.00;;;4.20;;
791;SDS011;379;49.022;12.148;2022-08-30T02:47:34;4.47;;;4.03;;
791;SDS011;379;49.022;12.148;2022-08-30T02:50:01;9.53;;;4.90;;
791;SDS011;379;49.022;12.148;2022-08-30T02:52:28;5.13;;;4.63;;
791;SDS011;379;49.022;12.148;2022-08-30T02:54:55;5.20;;;3.63;;
791;SDS011;379;49.022;12.148;2022-08-30T02:57:21;3.53;;;3.23;;
791;SDS011;379;49.022;12.148;2022-08-30T02:59:50;3.93;;;3.57;;
791;SDS011;379;49.022;12.148;2022-08-30T03:02:17;3.70;;;2.97;;
791;SDS011;379;49.022;12.148;2022-08-30T03:04:44;5.23;;;4.23;;
791;SDS011;379;49.022;12.148;2022-08-30T03:07:11;5.33;;;4.90;;
791;SDS011;379;49.022;12.148;2022-08-30T03:09:38;4.20;;;2.90;;
791;SDS011;379;49.022;12.148;2022-08-30T03:12:06;4.53;;;4.10;;
791;SDS011;379;49.022;12.148;2022-08-30T03:14:34;5.77;;;3.93;;
791;SDS011;379;49.022;12.148;2022-08-30T03:17:03;4.13;;;3.73;;
791;SDS011;379;49.022;12.148;2022-08-30T03:19:31;4.67;;;3.53;;
791;SDS011;379;49.022;12.148;2022-08-30T03:21:58;5.87;;;4.27;;
791;SDS011;379;49.022;12.148;2022-08-30T03:24:25;6.80;;;5.00;;
791;SDS011;379;49.022;12.148;2022-08-30T03:26:51;7.23;;;4.37;;
791;SDS011;379;49.022;12.148;2022-08-30T03:29:19;5.67;;;5.13;;
791;SDS011;379;49.022;12.148;2022-08-30T03:31:46;4.67;;;3.60;;
791;SDS011;379;49.022;12.148;2022-08-30T03:34:15;6.17;;;4.67;;
791;SDS011;379;49.022;12.148;2022-08-30T03:36:41;7.10;;;4.13;;
791;SDS011;379;49.022;12.148;2022-08-30T03:39:09;4.13;;;3.63;;
791;SDS011;379;49.022;12.148;2022-08-30T03:41:36;5.97;;;4.73;;
791;SDS011;379;49.022;12.148;2022-08-30T03:44:03;6.30;;;4.53;;
791;SDS011;379;49.022;12.148;2022-08-30T03:46:29;5.60;;;4.67;;
791;SDS011;379;49.022;12.148;2022-08-30T03:48:56;5.90;;;4.27;;
791;SDS011;379;49.022;12.148;2022-08-30T03:51:24;6.27;;;3.20;;
791;SDS011;379;49.022;12.148;2022-08-30T03:53:51;7.00;;;3.97;;
791;SDS011;379;49.022;12.148;2022-08-30T03:56:18;3.53;;;3.07;;
791;SDS011;379;49.022;12.148;2022-08-30T03:58:45;4.60;;;3.40;;
791;SDS011;379;49.022;12.148;2022-08-30T04:01:11;6.97;;;5.40;;
791;SDS011;379;49.022;12.148;2022-08-30T04:03:38;5.57;;;3.87;;
791;SDS011;379;49.022;12.148;2022-08-30T04:06:05;7.13;;;5.60;;
791;SDS011;379;49.022;12.148;2022-08-30T04:08:33;5.07;;;3.80;;
791;SDS011;379;49.022;12.148;2022-08-30T04:11:00;4.90;;;4.03;;
791;SDS011;379;49.022;12.148;2022-08-30T04:13:27;4.13;;;3.77;;
791;SDS011;379;49.022;12.148;2022-08-30T04:15:54;4.23;;;3.83;;
791;SDS011;379;49.022;12.148;2022-08-30T04:18:21;11.57;;;5.53;;
791;SDS011;379;49.022;12.148;2022-08-30T04:20:49;8.50;;;4.87;;
791;SDS011;379;49.022;12.148;2022-08-30T04:23:16;5.87;;;5.37;;
791;SDS011;379;49.022;12.148;2022-08-30T04:25:45;7.93;;;5.00;;
791;SDS011;379;49.022;12.148;2022-08-30T04:28:12;6.40;;;4.63;;
791;SDS011;379;49.022;12.148;2022-08-30T04:30:39;5.20;;;4.57;;
791;SDS011;379;49.022;12.148;2022-08-30T04:33:08;4.17;;;3.50;;
791;SDS011;379;49.022;12.148;2022-08-30T04:35:35;5.33;;;4.93;;
791;SDS011;379;49.022;12.148;2022-08-30T04:38:04;6.40;;;4.30;;
791;SDS011;379;49.022;12.148;2022-08-30T04:40:31;4.97;;;4.57;;
791;SDS011;379;49.022;12.148;2022-08-30T04:42:59;6.00;;;5.40;;
791;SDS011;379;49.022;12.148;2022-08-30T04:45:26;5.60;;;4.40;;
791;SDS011;379;49.022;12.148;2022-08-30T04:47:53;4.20;;;3.80;;
791;SDS011;379;49.022;12.148;2022-08-30T04:50:19;7.30;;;5.10;;
791;SDS011;379;49.022;12.148;2022-08-30T04:52:47;4.90;;;4.00;;
791;SDS011;379;49.022;12.148;2022-08-30T04:55:13;4.13;;;3.33;;
791;SDS011;379;49.022;12.148;2022-08-30T04:57:40;6.27;;;4.80;;
791;SDS011;379;49.022;12.148;2022-08-30T05:00:10;5.83;;;3.60;;
791;SDS011;379;49.022;12.148;2022-08-30T05:02:38;5.20;;;4.70;;
791;SDS011;379;49.022;12.148;2022-08-30T05:05:07;8.90;;;4.97;;
791;SDS011;379;49.022;12.148;2022-08-30T05:07:51;4.57;;;4.13;;
791;SDS011;379;49.022;12.148;2022-08-30T05:10:18;6.90;;;4.70;;
791;SDS011;379;49.022;12.148;2022-08-30T05:12:45;8.10;;;4.40;;
791;SDS011;379;49.022;12.148;2022-08-30T05:15:13;5.87;;;4.17;;
791;SDS011;379;49.022;12.148;2022-08-30T05:17:40;5.80;;;4.30;;
791;SDS011;379;49.022;12.148;2022-08-30T05:20:08;5.40;;;3.70;;
791;SDS011;379;49.022;12.148;2022-08-30T05:22:36;4.57;;;3.50;;
791;SDS011;379;49.022;12.148;2022-08-30T05:25:04;6.77;;;4.27;;
791;SDS011;379;49.022;12.148;2022-08-30T05:27:32;7.30;;;3.73;;
791;SDS011;379;49.022;12.148;2022-08-30T05:29:59;5.27;;;4.03;;
791;SDS011;379;49.022;12.148;2022-08-30T05:32:27;6.27;;;3.97;;
791;SDS011;379;49.022;12.148;2022-08-30T05:34:54;4.73;;;3.70;;
791;SDS011;379;49.022;12.148;2022-08-30T05:37:20;4.43;;;4.03;;
791;SDS011;379;49.022;12.148;2022-08-30T05:39:47;4.53;;;3.20;;
791;SDS011;379;49.022;12.148;2022-08-30T05:42:14;3.47;;;3.00;;
791;SDS011;379;49.022;12.148;2022-08-30T05:44:41;9.47;;;3.67;;
791;SDS011;379;49.022;12.148;2022-08-30T05:47:07;4.80;;;3.97;;
791;SDS011;379;49.022;12.148;2022-08-30T05:49:35;4.47;;;4.07;;
791;SDS011;379;49.022;12.148;2022-08-30T05:52:02;5.03;;;2.77;;
791;SDS011;379;49.022;12.148;2022-08-30T05:54:29;4.40;;;3.93;;
791;SDS011;379;49.022;12.148;2022-08-30T05:56:56;6.37;;;4.17;;
791;SDS011;379;49.022;12.148;2022-08-30T05:59:22;3.73;;;3.40;;
791;SDS011;379;49.022;12.148;2022-08-30T06:01:49;3.97;;;3.50;;
791;SDS011;379;49.022;12.148;2022-08-30T06:04:16;4.80;;;3.80;;
791;SDS011;379;49.022;12.148;2022-08-30T06:06:44;4.17;;;3.77;;
791;SDS011;379;49.022;12.148;2022-08-30T06:09:11;3.10;;;2.80;;
791;SDS011;379;49.022;12.148;2022-08-30T06:11:40;5.33;;;3.10;;
791;SDS011;379;49.022;12.148;2022-08-30T06:14:07;4.23;;;3.70;;
791;SDS011;379;49.022;12.148;2022-08-30T06:16:34;5.87;;;4.00;;
791;SDS011;379;49.022;12.148;2022-08-30T06:19:03;4.40;;;3.70;;
791;SDS011;379;49.022;12.148;2022-08-30T06:21:32;3.93;;;3.53;;
791;SDS011;379;49.022;12.148;2022-08-30T06:24:02;4.83;;;3.07;;
791;SDS011;379;49.022;12.148;2022-08-30T06:26:31;5.60;;;3.83;;
791;SDS011;379;49.022;12.148;2022-08-30T06:29:02;7.43;;;3.80;;
791;SDS011;379;49.022;12.148;2022-08-30T06:31:29;4.80;;;4.00;;
791;SDS011;379;49.022;12.148;2022-08-30T06:33:55;5.13;;;4.17;;
791;SDS011;379;49.022;12.148;2022-08-30T06:36:23;5.20;;;3.13;;
791;SDS011;379;49.022;12.148;2022-08-30T06:38:52;3.37;;;3.13;;
791;SDS011;379;49.022;12.148;2022-08-30T06:41:22;2.80;;;2.60;;
791;SDS011;379;49.022;12.148;2022-08-30T06:43:51;3.87;;;3.43;;
791;SDS011;379;49.022;12.148;2022-08-30T06:46:19;3.47;;;3.17;;
791;SDS011;379;49.022;12.148;2022-08-30T06:48:48;3.93;;;3.57;;
791;SDS011;379;49.022;12.148;2022-08-30T06:51:18;4.27;;;3.87;;
791;SDS011;379;49.022;12.148;2022-08-30T06:53:45;3.67;;;3.37;;
791;SDS011;379;49.022;12.148;2022-08-30T06:56:12;6.17;;;4.60;;
791;SDS011;379;49.022;12.148;2022-08-30T06:58:41;3.70;;;3.40;;
791;SDS011;379;49.022;12.148;2022-08-30T07:01:10;4.97;;;4.43;;
791;SDS011;379;49.022;12.148;2022-08-30T07:03:38;5.30;;;4.50;;
791;SDS011;379;49.022;12.148;2022-08-30T07:06:05;3.87;;;3.43;;
791;SDS011;379;49.022;12.148;2022-08-30T07:08:33;4.83;;;4.43;;
791;SDS011;379;49.022;12.148;2022-08-30T07:11:00;3.87;;;3.53;;
791;SDS011;379;49.022;12.148;2022-08-30T07:13:28;4.70;;;3.90;;
791;SDS011;379;49.022;12.148;2022-08-30T07:15:56;4.00;;;3.60;;
791;SDS011;379;49.022;12.148;2022-08-30T07:18:23;6.13;;;3.73;;
791;SDS011;379;49.022;12.148;2022-08-30T07:21:09;4.40;;;3.87;;
791;SDS011;379;49.022;12.148;2022-08-30T07:23:36;3.13;;;2.80;;
791;SDS011;379;49.022;12.148;2022-08-30T07:26:03;3.80;;;3.50;;
791;SDS011;379;49.022;12.148;2022-08-30T07:28:32;4.20;;;3.80;;
791;SDS011;379;49.022;12.148;2022-08-30T07:31:00;4.10;;;3.70;;
791;SDS011;379;49.022;12.148;2022-08-30T07:33:27;5.87;;;3.87;;
791;SDS011;379;49.022;12.148;2022-08-30T07:35:54;3.93;;;3.53;;
791;SDS011;379;49.022;12.148;2022-08-30T07:38:21;4.07;;;3.13;;
791;SDS011;379;49.022;12.148;2022-08-30T07:40:47;5.90;;;3.70;;
791;SDS011;379;49.022;12.148;2022-08-30T07:43:14;5.17;;;4.67;;
791;SDS011;379;49.022;12.148;2022-08-30T07:45:41;5.43;;;4.80;;
791;SDS011;379;49.022;12.148;2022-08-30T07:48:09;5.00;;;4.40;;
791;SDS011;379;49.022;12.148;2022-08-30T07:50:37;4.63;;;4.23;;
791;SDS011;379;49.022;12.148;2022-08-30T07:53:07;6.90;;;4.43;;
791;SDS011;379;49.022;12.148;2022-08-30T07:55:34;6.10;;;4.90;;
791;SDS011;379;49.022;12.148;2022-08-30T07:58:01;5.97;;;4.60;;
791;SDS011;379;49.022;12.148;2022-08-30T08:00:28;4.97;;;4.40;;
791;SDS011;379;49.022;12.148;2022-08-30T08:02:54;7.27;;;4.87;;
791;SDS011;379;49.022;12.148;2022-08-30T08:05:23;4.67;;;4.17;;
791;SDS011;379;49.022;12.148;2022-08-30T08:07:50;4.63;;;4.20;;
791;SDS011;379;49.022;12.148;2022-08-30T08:10:16;4.73;;;4.30;;
791;SDS011;379;49.022;12.148;2022-08-30T08:12:43;5.57;;;5.10;;
791;SDS011;379;49.022;12.148;2022-08-30T08:15:10;5.20;;;4.50;;
791;SDS011;379;49.022;12.148;2022-08-30T08:17:37;7.00;;;4.30;;
791;SDS011;379;49.022;12.148;2022-08-30T08:20:04;5.30;;;4.70;;
791;SDS011;379;49.022;12.148;2022-08-30T08:22:32;8.37;;;4.23;;
791;SDS011;379;49.022;12.148;2022-08-30T08:24:59;4.63;;;3.97;;
791;SDS011;379;49.022;12.148;2022-08-30T08:27:26;4.73;;;4.10;;
791;SDS011;379;49.022;12.148;2022-08-30T08:29:53;4.00;;;3.53;;
791;SDS011;379;49.022;12.148;2022-08-30T08:32:20;5.00;;;4.13;;
791;SDS011;379;49.022;12.148;2022-08-30T08:34:46;4.53;;;4.10;;
791;SDS011;379;49.022;12.148;2022-08-30T08:37:13;8.10;;;4.13;;
791;SDS011;379;49.022;12.148;2022-08-30T08:39:42;5.30;;;3.80;;
791;SDS011;379;49.022;12.148;2022-08-30T08:42:11;3.87;;;3.57;;
791;SDS011;379;49.022;12.148;2022-08-30T08:44:46;5.67;;;4.20;;
791;SDS011;379;49.022;12.148;2022-08-30T08:47:21;5.40;;;4.80;;
791;SDS011;379;49.022;12.148;2022-08-30T08:49:55;5.30;;;4.50;;
791;SDS011;379;49.022;12.148;2022-08-30T08:52:26;4.77;;;4.37;;
791;SDS011;379;49.022;12.148;2022-08-30T08:55:16;4.40;;;4.00;;
791;SDS011;379;49.022;12.148;2022-08-30T08:57:46;4.70;;;3.87;;
791;SDS011;379;49.022;12.148;2022-08-30T09:00:13;5.53;;;3.87;;
791;SDS011;379;49.022;12.148;2022-08-30T09:02:40;4.90;;;4.23;;
791;SDS011;379;49.022;12.148;2022-08-30T09:05:10;6.03;;;4.23;;
791;SDS011;379;49.022;12.148;2022-08-30T09:07:40;5.03;;;4.53;;
791;SDS011;379;49.022;12.148;2022-08-30T09:10:10;4.37;;;3.97;;
791;SDS011;379;49.022;12.148;2022-08-30T09:12:38;7.60;;;5.47;;
791;SDS011;379;49.022;12.148;2022-08-30T09:15:07;4.40;;;3.87;;
791;SDS011;379;49.022;12.148;2022-08-30T09:17:47;4.43;;;4.03;;
791;SDS011;379;49.022;12.148;2022-08-30T09:20:25;5.10;;;3.70;;
791;SDS011;379;49.022;12.148;2022-08-30T09:22:55;3.83;;;3.40;;
791;SDS011;379;49.022;12.148;2022-08-30T09:25:23;5.03;;;4.30;;
791;SDS011;379;49.022;12.148;2022-08-30T09:27:54;5.93;;;4.13;;
791;SDS011;379;49.022;12.148;2022-08-30T09:30:34;4.03;;;3.63;;
791;SDS011;379;49.022;12.148;2022-08-30T09:33:02;3.90;;;3.53;;
791;SDS011;379;49.022;12.148;2022-08-30T09:35:32;3.70;;;3.40;;
791;SDS011;379;49.022;12.148;2022-08-30T09:38:02;4.50;;;4.10;;
791;SDS011;379;49.022;12.148;2022-08-30T09:40:31;4.37;;;3.97;;
791;SDS011;379;49.022;12.148;2022-08-30T09:43:08;4.23;;;3.83;;
791;SDS011;379;49.022;12.148;2022-08-30T09:45:45;4.67;;;4.03;;
791;SDS011;379;49.022;12.148;2022-08-30T09:48:21;4.20;;;3.60;;
791;SDS011;379;49.022;12.148;2022-08-30T09:51:01;4.70;;;3.80;;
791;SDS011;379;49.022;12.148;2022-08-30T09:53:48;3.53;;;3.17;;
791;SDS011;379;49.022;12.148;2022-08-30T09:56:25;6.40;;;4.20;;
791;SDS011;379;49.022;12.148;2022-08-30T09:59:06;3.63;;;3.33;;
791;SDS011;379;49.022;12.148;2022-08-30T10:01:42;3.63;;;2.90;;
791;SDS011;379;49.022;12.148;2022-08-30T10:04:14;3.37;;;3.07;;
791;SDS011;379;49.022;12.148;2022-08-30T10:06:48;3.30;;;3.10;;
791;SDS011;379;49.022;12.148;2022-08-30T10:09:20;4.63;;;3.90;;
791;SDS011;379;49.022;12.148;2022-08-30T10:11:59;4.00;;;3.40;;
791;SDS011;379;49.022;12.148;2022-08-30T10:14:47;4.00;;;3.60;;
791;SDS011;379;49.022;12.148;2022-08-30T10:17:26;3.50;;;3.13;;
791;SDS011;379;49.022;12.148;2022-08-30T10:20:10;4.70;;;2.90;;
791;SDS011;379;49.022;12.148;2022-08-30T10:22:43;2.77;;;2.50;;
791;SDS011;379;49.022;12.148;2022-08-30T10:25:14;3.27;;;2.70;;
791;SDS011;379;49.022;12.148;2022-08-30T10:27:45;3.63;;;3.33;;
791;SDS011;379;49.022;12.148;2022-08-30T10:30:17;3.47;;;3.13;;
791;SDS011;379;49.022;12.148;2022-08-30T10:32:46;3.37;;;2.83;;
791;SDS011;379;49.022;12.148;2022-08-30T10:35:18;3.17;;;2.97;;
791;SDS011;379;49.022;12.148;2022-08-30T10:37:47;3.60;;;2.60;;
791;SDS011;379;49.022;12.148;2022-08-30T10:40:20;4.40;;;2.70;;
791;SDS011;379;49.022;12.148;2022-08-30T10:43:12;2.43;;;2.23;;
791;SDS011;379;49.022;12.148;2022-08-30T10:45:45;3.07;;;2.70;;
791;SDS011;379;49.022;12.148;2022-08-30T10:48:16;3.97;;;2.40;;
791;SDS011;379;49.022;12.148;2022-08-30T10:50:48;3.03;;;2.73;;
791;SDS011;379;49.022;12.148;2022-08-30T10:53:18;2.73;;;2.53;;
791;SDS011;379;49.022;12.148;2022-08-30T10:55:51;3.23;;;2.97;;
791;SDS011;379;49.022;12.148;2022-08-30T10:58:21;3.07;;;2.50;;
791;SDS011;379;49.022;12.148;2022-08-30T11:00:56;4.00;;;3.10;;
791;SDS011;379;49.022;12.148;2022-08-30T11:06:24;2.90;;;2.70;;
791;SDS011;379;49.022;12.148;2022-08-30T11:14:53;3.07;;;2.73;;
791;SDS011;379;49.022;12.148;2022-08-30T11:17:24;3.20;;;2.90;;
791;SDS011;379;49.022;12.148;2022-08-30T11:19:54;2.70;;;2.50;;
791;SDS011;379;49.022;12.148;2022-08-30T11:22:24;2.60;;;2.40;;
791;SDS011;379;49.022;12.148;2022-08-30T11:27:43;3.03;;;2.70;;
791;SDS011;379;49.022;12.148;2022-08-30T11:33:28;2.70;;;2.50;;
791;SDS011;379;49.022;12.148;2022-08-30T11:36:05;3.90;;;3.00;;
791;SDS011;379;49.022;12.148;2022-08-30T11:41:28;2.57;;;2.37;;
791;SDS011;379;49.022;12.148;2022-08-30T11:46:55;2.73;;;2.30;;
791;SDS011;379;49.022;12.148;2022-08-30T11:52:30;3.10;;;2.80;;
791;SDS011;379;49.022;12.148;2022-08-30T11:55:17;2.23;;;2.03;;
791;SDS011;379;49.022;12.148;2022-08-30T11:58:05;2.40;;;2.20;;
791;SDS011;379;49.022;12.148;2022-08-30T12:00:42;3.00;;;2.43;;
791;SDS011;379;49.022;12.148;2022-08-30T12:03:26;3.53;;;2.43;;
791;SDS011;379;49.022;12.148;2022-08-30T12:05:57;2.50;;;2.27;;
791;SDS011;379;49.022;12.148;2022-08-30T12:08:42;4.67;;;2.83;;
791;SDS011;379;49.022;12.148;2022-08-30T12:17:27;2.93;;;2.63;;
791;SDS011;379;49.022;12.148;2022-08-30T12:23:12;2.80;;;2.60;;
791;SDS011;379;49.022;12.148;2022-08-30T12:25:44;5.03;;;2.90;;
791;SDS011;379;49.022;12.148;2022-08-30T12:28:13;4.93;;;2.90;;
791;SDS011;379;49.022;12.148;2022-08-30T12:30:41;2.70;;;2.50;;
791;SDS011;379;49.022;12.148;2022-08-30T12:33:09;3.20;;;2.90;;
791;SDS011;379;49.022;12.148;2022-08-30T12:35:38;1.97;;;1.87;;
791;SDS011;379;49.022;12.148;2022-08-30T12:38:13;8.77;;;2.93;;
791;SDS011;379;49.022;12.148;2022-08-30T12:40:48;2.63;;;2.33;;
791;SDS011;379;49.022;12.148;2022-08-30T12:43:21;4.33;;;2.57;;
791;SDS011;379;49.022;12.148;2022-08-30T12:45:50;3.60;;;3.30;;
791;SDS011;379;49.022;12.148;2022-08-30T12:48:20;2.47;;;2.27;;
791;SDS011;379;49.022;12.148;2022-08-30T12:50:49;2.77;;;2.30;;
791;SDS011;379;49.022;12.148;2022-08-30T12:53:22;2.73;;;2.53;;
791;SDS011;379;49.022;12.148;2022-08-30T12:55:53;3.00;;;2.60;;
791;SDS011;379;49.022;12.148;2022-08-30T12:58:36;3.90;;;3.00;;
791;SDS011;379;49.022;12.148;2022-08-30T13:01:10;4.70;;;2.53;;
791;SDS011;379;49.022;12.148;2022-08-30T13:03:42;4.00;;;2.80;;
791;SDS011;379;49.022;12.148;2022-08-30T13:06:34;2.27;;;2.07;;
791;SDS011;379;49.022;12.148;2022-08-30T13:09:04;3.30;;;2.40;;
791;SDS011;379;49.022;12.148;2022-08-30T13:11:31;2.53;;;2.33;;
791;SDS011;379;49.022;12.148;2022-08-30T13:17:10;2.77;;;2.27;;
791;SDS011;379;49.022;12.148;2022-08-30T13:19:54;3.20;;;2.90;;
791;SDS011;379;49.022;12.148;2022-08-30T13:22:24;3.13;;;2.73;;
791;SDS011;379;49.022;12.148;2022-08-30T13:24:54;3.40;;;3.10;;
791;SDS011;379;49.022;12.148;2022-08-30T13:27:21;2.50;;;2.30;;
791;SDS011;379;49.022;12.148;2022-08-30T13:29:48;2.50;;;2.30;;
791;SDS011;379;49.022;12.148;2022-08-30T13:32:15;2.53;;;2.33;;
791;SDS011;379;49.022;12.148;2022-08-30T13:34:43;2.00;;;1.80;;
791;SDS011;379;49.022;12.148;2022-08-30T13:37:12;2.10;;;1.90;;
791;SDS011;379;49.022;12.148;2022-08-30T13:39:40;2.30;;;2.10;;
791;SDS011;379;49.022;12.148;2022-08-30T13:42:08;3.90;;;1.83;;
791;SDS011;379;49.022;12.148;2022-08-30T13:44:35;2.10;;;1.90;;
791;SDS011;379;49.022;12.148;2022-08-30T13:47:02;2.07;;;1.87;;
791;SDS011;379;49.022;12.148;2022-08-30T13:49:31;2.33;;;2.10;;
791;SDS011;379;49.022;12.148;2022-08-30T13:52:00;2.47;;;2.27;;
791;SDS011;379;49.022;12.148;2022-08-30T13:54:27;2.80;;;2.20;;
791;SDS011;379;49.022;12.148;2022-08-30T13:56:54;2.90;;;2.43;;
791;SDS011;379;49.022;12.148;2022-08-30T13:59:23;1.77;;;1.67;;
791;SDS011;379;49.022;12.148;2022-08-30T14:01:51;2.07;;;1.90;;
791;SDS011;379;49.022;12.148;2022-08-30T14:04:20;2.43;;;2.23;;
791;SDS011;379;49.022;12.148;2022-08-30T14:06:47;3.50;;;2.00;;
791;SDS011;379;49.022;12.148;2022-08-30T14:09:13;2.50;;;2.13;;
791;SDS011;379;49.022;12.148;2022-08-30T14:11:40;2.13;;;1.93;;
791;SDS011;379;49.022;12.148;2022-08-30T14:14:07;2.10;;;1.90;;
791;SDS011;379;49.022;12.148;2022-08-30T14:16:37;1.60;;;1.50;;
791;SDS011;379;49.022;12.148;2022-08-30T14:19:07;2.50;;;2.30;;
791;SDS011;379;49.022;12.148;2022-08-30T14:21:35;2.23;;;1.90;;
791;SDS011;379;49.022;12.148;2022-08-30T14:24:02;1.50;;;1.40;;
791;SDS011;379;49.022;12.148;2022-08-30T14:26:31;3.00;;;2.27;;
791;SDS011;379;49.022;12.148;2022-08-30T14:28:59;3.93;;;2.30;;
791;SDS011;379;49.022;12.148;2022-08-30T14:31:26;2.17;;;1.97;;
791;SDS011;379;49.022;12.148;2022-08-30T14:33:55;3.77;;;2.50;;
791;SDS011;379;49.022;12.148;2022-08-30T14:36:22;2.87;;;2.40;;
791;SDS011;379;49.022;12.148;2022-08-30T14:38:49;1.53;;;1.40;;
791;SDS011;379;49.022;12.148;2022-08-30T14:41:16;2.23;;;1.97;;
791;SDS011;379;49.022;12.148;2022-08-30T14:43:43;2.20;;;2.00;;
791;SDS011;379;49.022;12.148;2022-08-30T14:46:09;1.87;;;1.67;;
791;SDS011;379;49.022;12.148;2022-08-30T14:48:37;1.70;;;1.60;;
791;SDS011;379;49.022;12.148;2022-08-30T14:51:11;2.87;;;1.83;;
791;SDS011;379;49.022;12.148;2022-08-30T14:53:38;2.73;;;1.57;;
791;SDS011;379;49.022;12.148;2022-08-30T14:56:06;2.03;;;1.83;;
791;SDS011;379;49.022;12.148;2022-08-30T14:58:34;1.70;;;1.60;;
791;SDS011;379;49.022;12.148;2022-08-30T15:01:00;2.90;;;2.07;;
791;SDS011;379;49.022;12.148;2022-08-30T15:03:30;1.43;;;1.33;;
791;SDS011;379;49.022;12.148;2022-08-30T15:05:57;2.57;;;2.10;;
791;SDS011;379;49.022;12.148;2022-08-30T15:08:25;1.70;;;1.60;;
791;SDS011;379;49.022;12.148;2022-08-30T15:10:52;1.80;;;1.70;;
791;SDS011;379;49.022;12.148;2022-08-30T15:13:18;2.07;;;1.90;;
791;SDS011;379;49.022;12.148;2022-08-30T15:15:45;2.40;;;1.97;;
791;SDS011;379;49.022;12.148;2022-08-30T15:18:12;2.13;;;1.50;;
791;SDS011;379;49.022;12.148;2022-08-30T15:20:43;1.60;;;1.50;;
791;SDS011;379;49.022;12.148;2022-08-30T15:23:10;1.67;;;1.57;;
791;SDS011;379;49.022;12.148;2022-08-30T15:25:38;3.07;;;1.83;;
791;SDS011;379;49.022;12.148;2022-08-30T15:28:06;1.53;;;1.43;;
791;SDS011;379;49.022;12.148;2022-08-30T15:30:33;1.73;;;1.63;;
791;SDS011;379;49.022;12.148;2022-08-30T15:32:59;1.60;;;1.50;;
791;SDS011;379;49.022;12.148;2022-08-30T15:35:26;1.60;;;1.50;;
791;SDS011;379;49.022;12.148;2022-08-30T15:37:53;1.87;;;1.57;;
791;SDS011;379;49.022;12.148;2022-08-30T15:40:20;1.47;;;1.37;;
791;SDS011;379;49.022;12.148;2022-08-30T15:42:49;1.40;;;1.30;;
791;SDS011;379;49.022;12.148;2022-08-30T15:45:16;1.80;;;1.40;;
791;SDS011;379;49.022;12.148;2022-08-30T15:47:43;1.10;;;0.90;;
791;SDS011;379;49.022;12.148;2022-08-30T15:50:10;1.90;;;1.67;;
791;SDS011;379;49.022;12.148;2022-08-30T15:52:36;1.20;;;1.00;;
791;SDS011;379;49.022;12.148;2022-08-30T15:55:06;2.07;;;1.30;;
791;SDS011;379;49.022;12.148;2022-08-30T15:57:34;1.70;;;1.60;;
791;SDS011;379;49.022;12.148;2022-08-30T16:00:03;1.20;;;1.10;;
791;SDS011;379;49.022;12.148;2022-08-30T16:02:31;1.60;;;1.50;;
791;SDS011;379;49.022;12.148;2022-08-30T16:04:57;1.43;;;1.33;;
791;SDS011;379;49.022;12.148;2022-08-30T16:07:24;1.70;;;1.17;;
791;SDS011;379;49.022;12.148;2022-08-30T16:09:51;1.10;;;1.00;;
791;SDS011;379;49.022;12.148;2022-08-30T16:12:18;2.00;;;1.30;;
791;SDS011;379;49.022;12.148;2022-08-30T16:14:44;1.73;;;1.40;;
791;SDS011;379;49.022;12.148;2022-08-30T16:17:12;2.60;;;1.70;;
791;SDS011;379;49.022;12.148;2022-08-30T16:19:39;1.63;;;1.33;;
791;SDS011;379;49.022;12.148;2022-08-30T16:22:06;1.60;;;1.20;;
791;SDS011;379;49.022;12.148;2022-08-30T16:24:35;1.80;;;1.70;;
791;SDS011;379;49.022;12.148;2022-08-30T16:27:02;1.23;;;1.13;;
791;SDS011;379;49.022;12.148;2022-08-30T16:29:28;1.77;;;1.67;;